sensor_id;sensor_type;location;lat;lon;timestamp;pressure;altitude;pressure_sealevel;temperature
64175;BMP280;50469;50.438;-119.202;2023-08-06T00:00:47;97213.75;;;33.03
64175;BMP280;50469;50.438;-119.202;2023-08-06T00:03:15;97214.78;;;33.48
64175;BMP280;50469;50.438;-119.202;2023-08-06T00:05:44;97213.56;;;33.41
64175;BMP280;50469;50.438;-119.202;2023-08-06T00:08:12;97214.06;;;33.15
64175;BMP280;50469;50.438;-119.202;2023-08-06T00:10:40;97204.41;;;33.48
64175;BMP280;50469;50.438;-119.202;2023-08-06T00:13:08;97202.94;;;33.47
64175;BMP280;50469;50.438;-119.202;2023-08-06T00:15:36;97210.47;;;33.54
64175;BMP280;50469;50.438;-119.202;2023-08-06T00:18:04;97208.59;;;33.57
64175;BMP280;50469;50.438;-119.202;2023-08-06T00:20:35;97201.69;;;33.65
64175;BMP280;50469;50.438;-119.202;2023-08-06T00:23:06;97198.69;;;33.71
64175;BMP280;50469;50.438;-119.202;2023-08-06T00:25:34;97204.69;;;33.60
64175;BMP280;50469;50.438;-119.202;2023-08-06T00:28:02;97197.84;;;33.61
64175;BMP280;50469;50.438;-119.202;2023-08-06T00:30:31;97202.81;;;33.87
64175;BMP280;50469;50.438;-119.202;2023-08-06T00:32:59;97201.31;;;33.69
64175;BMP280;50469;50.438;-119.202;2023-08-06T00:35:27;97191.06;;;33.47
64175;BMP280;50469;50.438;-119.202;2023-08-06T00:37:55;97197.28;;;33.37
64175;BMP280;50469;50.438;-119.202;2023-08-06T00:40:23;97189.34;;;33.59
64175;BMP280;50469;50.438;-119.202;2023-08-06T00:42:52;97191.50;;;33.43
64175;BMP280;50469;50.438;-119.202;2023-08-06T00:45:20;97190.63;;;33.33
64175;BMP280;50469;50.438;-119.202;2023-08-06T00:47:48;97183.03;;;33.41
64175;BMP280;50469;50.438;-119.202;2023-08-06T00:50:18;97185.25;;;33.35
64175;BMP280;50469;50.438;-119.202;2023-08-06T00:52:47;97180.25;;;33.33
64175;BMP280;50469;50.438;-119.202;2023-08-06T00:55:15;97182.31;;;33.33
64175;BMP280;50469;50.438;-119.202;2023-08-06T00:57:43;97172.34;;;33.30
64175;BMP280;50469;50.438;-119.202;2023-08-06T01:00:14;97180.94;;;33.42
64175;BMP280;50469;50.438;-119.202;2023-08-06T01:02:42;97172.03;;;33.18
64175;BMP280;50469;50.438;-119.202;2023-08-06T01:05:11;97179.88;;;33.12
64175;BMP280;50469;50.438;-119.202;2023-08-06T01:13:48;97174.72;;;32.61
64175;BMP280;50469;50.438;-119.202;2023-08-06T01:16:19;97175.84;;;32.58
64175;BMP280;50469;50.438;-119.202;2023-08-06T01:18:49;97177.13;;;32.49
64175;BMP280;50469;50.438;-119.202;2023-08-06T01:21:18;97176.81;;;32.37
64175;BMP280;50469;50.438;-119.202;2023-08-06T01:23:47;97176.66;;;32.20
64175;BMP280;50469;50.438;-119.202;2023-08-06T01:26:35;97180.38;;;32.07
64175;BMP280;50469;50.438;-119.202;2023-08-06T01:31:48;97173.00;;;31.71
64175;BMP280;50469;50.438;-119.202;2023-08-06T01:34:22;97165.59;;;31.59
64175;BMP280;50469;50.438;-119.202;2023-08-06T01:36:52;97168.19;;;31.49
64175;BMP280;50469;50.438;-119.202;2023-08-06T01:39:20;97170.56;;;31.45
64175;BMP280;50469;50.438;-119.202;2023-08-06T01:41:48;97167.03;;;31.29
64175;BMP280;50469;50.438;-119.202;2023-08-06T01:44:18;97171.63;;;31.19
64175;BMP280;50469;50.438;-119.202;2023-08-06T01:46:46;97168.66;;;31.09
64175;BMP280;50469;50.438;-119.202;2023-08-06T01:49:14;97176.31;;;30.96
64175;BMP280;50469;50.438;-119.202;2023-08-06T01:51:42;97172.41;;;30.83
64175;BMP280;50469;50.438;-119.202;2023-08-06T01:54:10;97175.28;;;30.70
64175;BMP280;50469;50.438;-119.202;2023-08-06T01:56:38;97177.44;;;30.56
64175;BMP280;50469;50.438;-119.202;2023-08-06T01:59:07;97176.16;;;30.29
64175;BMP280;50469;50.438;-119.202;2023-08-06T02:01:35;97179.59;;;29.93
64175;BMP280;50469;50.438;-119.202;2023-08-06T02:04:04;97182.94;;;29.58
64175;BMP280;50469;50.438;-119.202;2023-08-06T02:06:34;97179.00;;;29.53
64175;BMP280;50469;50.438;-119.202;2023-08-06T02:09:02;97182.38;;;29.59
64175;BMP280;50469;50.438;-119.202;2023-08-06T02:11:30;97187.09;;;29.51
64175;BMP280;50469;50.438;-119.202;2023-08-06T02:13:59;97183.31;;;29.41
64175;BMP280;50469;50.438;-119.202;2023-08-06T02:16:27;97193.81;;;29.42
64175;BMP280;50469;50.438;-119.202;2023-08-06T02:18:55;97181.16;;;29.47
64175;BMP280;50469;50.438;-119.202;2023-08-06T02:21:23;97179.97;;;29.55
64175;BMP280;50469;50.438;-119.202;2023-08-06T02:23:52;97183.19;;;29.46
64175;BMP280;50469;50.438;-119.202;2023-08-06T02:26:20;97182.22;;;29.44
64175;BMP280;50469;50.438;-119.202;2023-08-06T02:28:48;97186.78;;;29.41
64175;BMP280;50469;50.438;-119.202;2023-08-06T02:31:16;97178.97;;;29.32
64175;BMP280;50469;50.438;-119.202;2023-08-06T02:33:44;97184.28;;;29.30
64175;BMP280;50469;50.438;-119.202;2023-08-06T02:36:12;97185.28;;;29.19
64175;BMP280;50469;50.438;-119.202;2023-08-06T02:38:40;97188.78;;;29.07
64175;BMP280;50469;50.438;-119.202;2023-08-06T02:41:08;97184.25;;;28.96
64175;BMP280;50469;50.438;-119.202;2023-08-06T02:43:36;97183.72;;;28.84
64175;BMP280;50469;50.438;-119.202;2023-08-06T02:46:05;97179.72;;;28.72
64175;BMP280;50469;50.438;-119.202;2023-08-06T02:48:33;97187.56;;;28.68
64175;BMP280;50469;50.438;-119.202;2023-08-06T02:51:01;97193.81;;;28.55
64175;BMP280;50469;50.438;-119.202;2023-08-06T02:53:30;97190.94;;;28.47
64175;BMP280;50469;50.438;-119.202;2023-08-06T02:55:58;97185.94;;;28.46
64175;BMP280;50469;50.438;-119.202;2023-08-06T02:58:26;97195.78;;;28.41
64175;BMP280;50469;50.438;-119.202;2023-08-06T03:01:05;97203.63;;;28.24
64175;BMP280;50469;50.438;-119.202;2023-08-06T03:03:34;97195.25;;;27.84
64175;BMP280;50469;50.438;-119.202;2023-08-06T03:06:03;97203.16;;;27.18
64175;BMP280;50469;50.438;-119.202;2023-08-06T03:08:31;97205.91;;;27.18
64175;BMP280;50469;50.438;-119.202;2023-08-06T03:10:59;97209.75;;;27.28
64175;BMP280;50469;50.438;-119.202;2023-08-06T03:13:27;97209.06;;;27.22
64175;BMP280;50469;50.438;-119.202;2023-08-06T03:15:57;97212.81;;;27.00
64175;BMP280;50469;50.438;-119.202;2023-08-06T03:18:26;97209.97;;;26.87
64175;BMP280;50469;50.438;-119.202;2023-08-06T03:20:54;97212.03;;;26.81
64175;BMP280;50469;50.438;-119.202;2023-08-06T03:23:22;97213.88;;;26.73
64175;BMP280;50469;50.438;-119.202;2023-08-06T03:25:50;97212.88;;;26.70
64175;BMP280;50469;50.438;-119.202;2023-08-06T03:28:19;97216.53;;;26.54
64175;BMP280;50469;50.438;-119.202;2023-08-06T03:30:47;97217.47;;;26.32
64175;BMP280;50469;50.438;-119.202;2023-08-06T03:33:15;97214.66;;;26.07
64175;BMP280;50469;50.438;-119.202;2023-08-06T03:35:46;97216.16;;;25.67
64175;BMP280;50469;50.438;-119.202;2023-08-06T03:38:15;97222.69;;;25.58
64175;BMP280;50469;50.438;-119.202;2023-08-06T03:40:43;97223.56;;;25.25
64175;BMP280;50469;50.438;-119.202;2023-08-06T03:43:14;97226.13;;;24.95
64175;BMP280;50469;50.438;-119.202;2023-08-06T03:45:42;97229.88;;;24.86
64175;BMP280;50469;50.438;-119.202;2023-08-06T03:48:11;97226.66;;;24.88
64175;BMP280;50469;50.438;-119.202;2023-08-06T03:50:39;97231.84;;;24.92
64175;BMP280;50469;50.438;-119.202;2023-08-06T03:53:07;97228.63;;;24.82
64175;BMP280;50469;50.438;-119.202;2023-08-06T03:55:38;97234.63;;;24.63
64175;BMP280;50469;50.438;-119.202;2023-08-06T03:58:06;97231.16;;;24.52
64175;BMP280;50469;50.438;-119.202;2023-08-06T04:00:34;97242.09;;;24.85
64175;BMP280;50469;50.438;-119.202;2023-08-06T04:03:02;97245.81;;;24.77
64175;BMP280;50469;50.438;-119.202;2023-08-06T04:05:34;97245.09;;;24.71
64175;BMP280;50469;50.438;-119.202;2023-08-06T04:08:02;97246.56;;;24.60
64175;BMP280;50469;50.438;-119.202;2023-08-06T04:10:30;97244.56;;;24.33
64175;BMP280;50469;50.438;-119.202;2023-08-06T04:12:58;97252.03;;;24.21
64175;BMP280;50469;50.438;-119.202;2023-08-06T04:15:30;97256.03;;;24.48
64175;BMP280;50469;50.438;-119.202;2023-08-06T04:18:01;97264.44;;;24.17
64175;BMP280;50469;50.438;-119.202;2023-08-06T04:20:30;97263.25;;;24.46
64175;BMP280;50469;50.438;-119.202;2023-08-06T04:22:58;97263.25;;;24.68
64175;BMP280;50469;50.438;-119.202;2023-08-06T04:25:26;97274.06;;;23.84
64175;BMP280;50469;50.438;-119.202;2023-08-06T04:27:55;97279.56;;;23.04
64175;BMP280;50469;50.438;-119.202;2023-08-06T04:30:23;97280.00;;;23.28
64175;BMP280;50469;50.438;-119.202;2023-08-06T04:32:51;97272.34;;;23.32
64175;BMP280;50469;50.438;-119.202;2023-08-06T04:35:19;97277.97;;;23.23
64175;BMP280;50469;50.438;-119.202;2023-08-06T04:37:47;97287.13;;;23.15
64175;BMP280;50469;50.438;-119.202;2023-08-06T04:40:15;97282.88;;;23.13
64175;BMP280;50469;50.438;-119.202;2023-08-06T04:42:43;97273.38;;;23.41
64175;BMP280;50469;50.438;-119.202;2023-08-06T04:45:14;97280.06;;;23.45
64175;BMP280;50469;50.438;-119.202;2023-08-06T04:47:42;97281.59;;;23.46
64175;BMP280;50469;50.438;-119.202;2023-08-06T04:50:10;97286.81;;;23.50
64175;BMP280;50469;50.438;-119.202;2023-08-06T04:52:41;97287.88;;;23.58
64175;BMP280;50469;50.438;-119.202;2023-08-06T04:55:09;97278.16;;;23.57
64175;BMP280;50469;50.438;-119.202;2023-08-06T04:57:37;97289.47;;;23.33
64175;BMP280;50469;50.438;-119.202;2023-08-06T05:00:06;97292.66;;;22.16
64175;BMP280;50469;50.438;-119.202;2023-08-06T05:02:34;97299.16;;;21.98
64175;BMP280;50469;50.438;-119.202;2023-08-06T05:05:02;97296.75;;;21.65
64175;BMP280;50469;50.438;-119.202;2023-08-06T05:07:31;97292.44;;;21.99
64175;BMP280;50469;50.438;-119.202;2023-08-06T05:09:59;97302.56;;;22.13
64175;BMP280;50469;50.438;-119.202;2023-08-06T05:12:27;97301.50;;;22.11
64175;BMP280;50469;50.438;-119.202;2023-08-06T05:14:55;97304.25;;;22.31
64175;BMP280;50469;50.438;-119.202;2023-08-06T05:17:23;97296.19;;;22.43
64175;BMP280;50469;50.438;-119.202;2023-08-06T05:19:52;97303.09;;;22.64
64175;BMP280;50469;50.438;-119.202;2023-08-06T05:22:20;97301.38;;;22.67
64175;BMP280;50469;50.438;-119.202;2023-08-06T05:24:48;97299.22;;;22.50
64175;BMP280;50469;50.438;-119.202;2023-08-06T05:27:16;97311.72;;;22.57
64175;BMP280;50469;50.438;-119.202;2023-08-06T05:29:47;97302.56;;;22.60
64175;BMP280;50469;50.438;-119.202;2023-08-06T05:32:16;97299.50;;;22.52
64175;BMP280;50469;50.438;-119.202;2023-08-06T05:34:44;97306.63;;;22.50
64175;BMP280;50469;50.438;-119.202;2023-08-06T05:37:12;97312.09;;;22.50
64175;BMP280;50469;50.438;-119.202;2023-08-06T05:39:40;97317.47;;;21.77
64175;BMP280;50469;50.438;-119.202;2023-08-06T05:42:08;97314.19;;;21.53
64175;BMP280;50469;50.438;-119.202;2023-08-06T05:44:37;97316.47;;;20.41
64175;BMP280;50469;50.438;-119.202;2023-08-06T05:47:05;97317.50;;;20.98
64175;BMP280;50469;50.438;-119.202;2023-08-06T05:49:33;97316.91;;;21.38
64175;BMP280;50469;50.438;-119.202;2023-08-06T05:52:01;97312.44;;;20.76
64175;BMP280;50469;50.438;-119.202;2023-08-06T05:54:29;97316.41;;;20.75
64175;BMP280;50469;50.438;-119.202;2023-08-06T05:56:58;97322.31;;;20.34
64175;BMP280;50469;50.438;-119.202;2023-08-06T05:59:27;97323.22;;;20.31
64175;BMP280;50469;50.438;-119.202;2023-08-06T06:01:55;97321.78;;;20.60
64175;BMP280;50469;50.438;-119.202;2023-08-06T06:04:23;97328.69;;;19.83
64175;BMP280;50469;50.438;-119.202;2023-08-06T06:06:52;97320.94;;;20.15
64175;BMP280;50469;50.438;-119.202;2023-08-06T06:09:20;97330.16;;;20.08
64175;BMP280;50469;50.438;-119.202;2023-08-06T06:11:48;97317.94;;;20.13
64175;BMP280;50469;50.438;-119.202;2023-08-06T06:14:18;97327.88;;;19.59
64175;BMP280;50469;50.438;-119.202;2023-08-06T06:16:47;97326.28;;;19.43
64175;BMP280;50469;50.438;-119.202;2023-08-06T06:19:15;97325.25;;;19.73
64175;BMP280;50469;50.438;-119.202;2023-08-06T06:21:46;97327.94;;;19.31
64175;BMP280;50469;50.438;-119.202;2023-08-06T06:24:15;97334.88;;;19.32
64175;BMP280;50469;50.438;-119.202;2023-08-06T06:26:43;97338.97;;;19.28
64175;BMP280;50469;50.438;-119.202;2023-08-06T06:29:11;97332.16;;;19.84
64175;BMP280;50469;50.438;-119.202;2023-08-06T06:31:41;97331.56;;;20.28
64175;BMP280;50469;50.438;-119.202;2023-08-06T06:34:09;97340.94;;;20.03
64175;BMP280;50469;50.438;-119.202;2023-08-06T06:36:37;97341.50;;;19.83
64175;BMP280;50469;50.438;-119.202;2023-08-06T06:39:06;97341.44;;;20.16
64175;BMP280;50469;50.438;-119.202;2023-08-06T06:41:34;97345.19;;;19.94
64175;BMP280;50469;50.438;-119.202;2023-08-06T06:44:05;97345.44;;;19.82
64175;BMP280;50469;50.438;-119.202;2023-08-06T06:46:33;97351.28;;;19.89
64175;BMP280;50469;50.438;-119.202;2023-08-06T06:49:01;97352.59;;;19.94
64175;BMP280;50469;50.438;-119.202;2023-08-06T06:51:29;97350.19;;;19.96
64175;BMP280;50469;50.438;-119.202;2023-08-06T06:53:57;97354.13;;;18.83
64175;BMP280;50469;50.438;-119.202;2023-08-06T06:56:28;97355.47;;;19.15
64175;BMP280;50469;50.438;-119.202;2023-08-06T06:58:56;97352.09;;;19.38
64175;BMP280;50469;50.438;-119.202;2023-08-06T07:01:24;97342.25;;;19.41
64175;BMP280;50469;50.438;-119.202;2023-08-06T07:03:55;97358.38;;;19.44
64175;BMP280;50469;50.438;-119.202;2023-08-06T07:06:24;97365.38;;;19.36
64175;BMP280;50469;50.438;-119.202;2023-08-06T07:08:55;97370.06;;;19.27
64175;BMP280;50469;50.438;-119.202;2023-08-06T07:11:23;97373.53;;;19.27
64175;BMP280;50469;50.438;-119.202;2023-08-06T07:13:56;97379.31;;;18.65
64175;BMP280;50469;50.438;-119.202;2023-08-06T07:16:28;97378.84;;;17.98
64175;BMP280;50469;50.438;-119.202;2023-08-06T07:18:56;97388.53;;;17.77
64175;BMP280;50469;50.438;-119.202;2023-08-06T07:21:24;97388.31;;;17.94
64175;BMP280;50469;50.438;-119.202;2023-08-06T07:23:53;97392.06;;;18.46
64175;BMP280;50469;50.438;-119.202;2023-08-06T07:26:21;97387.94;;;18.23
64175;BMP280;50469;50.438;-119.202;2023-08-06T07:28:49;97393.44;;;18.50
64175;BMP280;50469;50.438;-119.202;2023-08-06T07:31:17;97396.75;;;18.54
64175;BMP280;50469;50.438;-119.202;2023-08-06T07:33:45;97404.13;;;18.04
64175;BMP280;50469;50.438;-119.202;2023-08-06T07:36:14;97398.69;;;18.45
64175;BMP280;50469;50.438;-119.202;2023-08-06T07:38:42;97402.84;;;18.18
64175;BMP280;50469;50.438;-119.202;2023-08-06T07:41:13;97413.22;;;17.79
64175;BMP280;50469;50.438;-119.202;2023-08-06T07:43:41;97408.94;;;18.00
64175;BMP280;50469;50.438;-119.202;2023-08-06T07:46:09;97403.09;;;18.11
64175;BMP280;50469;50.438;-119.202;2023-08-06T07:48:37;97409.59;;;18.14
64175;BMP280;50469;50.438;-119.202;2023-08-06T07:51:06;97408.09;;;18.13
64175;BMP280;50469;50.438;-119.202;2023-08-06T07:53:34;97409.91;;;18.74
64175;BMP280;50469;50.438;-119.202;2023-08-06T07:56:02;97412.72;;;18.62
64175;BMP280;50469;50.438;-119.202;2023-08-06T07:58:30;97423.19;;;18.23
64175;BMP280;50469;50.438;-119.202;2023-08-06T08:00:58;97406.78;;;18.17
64175;BMP280;50469;50.438;-119.202;2023-08-06T08:03:30;97408.94;;;18.41
64175;BMP280;50469;50.438;-119.202;2023-08-06T08:05:59;97415.84;;;17.92
64175;BMP280;50469;50.438;-119.202;2023-08-06T08:08:27;97410.13;;;18.40
64175;BMP280;50469;50.438;-119.202;2023-08-06T08:10:55;97418.78;;;18.57
64175;BMP280;50469;50.438;-119.202;2023-08-06T08:13:24;97418.22;;;18.21
64175;BMP280;50469;50.438;-119.202;2023-08-06T08:15:57;97422.00;;;18.33
64175;BMP280;50469;50.438;-119.202;2023-08-06T08:18:25;97427.16;;;18.49
64175;BMP280;50469;50.438;-119.202;2023-08-06T08:20:53;97427.53;;;17.14
64175;BMP280;50469;50.438;-119.202;2023-08-06T08:23:22;97429.34;;;17.83
64175;BMP280;50469;50.438;-119.202;2023-08-06T08:25:50;97434.78;;;17.61
64175;BMP280;50469;50.438;-119.202;2023-08-06T08:28:18;97434.91;;;17.79
64175;BMP280;50469;50.438;-119.202;2023-08-06T08:30:46;97436.28;;;17.62
64175;BMP280;50469;50.438;-119.202;2023-08-06T08:33:14;97439.09;;;17.49
64175;BMP280;50469;50.438;-119.202;2023-08-06T08:35:42;97446.91;;;17.56
64175;BMP280;50469;50.438;-119.202;2023-08-06T08:38:10;97443.03;;;17.57
64175;BMP280;50469;50.438;-119.202;2023-08-06T08:40:46;97445.13;;;17.53
64175;BMP280;50469;50.438;-119.202;2023-08-06T08:43:15;97436.75;;;17.70
64175;BMP280;50469;50.438;-119.202;2023-08-06T08:45:46;97439.25;;;17.55
64175;BMP280;50469;50.438;-119.202;2023-08-06T08:48:18;97435.31;;;17.78
64175;BMP280;50469;50.438;-119.202;2023-08-06T08:50:47;97433.50;;;17.75
64175;BMP280;50469;50.438;-119.202;2023-08-06T08:53:17;97435.97;;;17.16
64175;BMP280;50469;50.438;-119.202;2023-08-06T08:55:48;97438.66;;;16.81
64175;BMP280;50469;50.438;-119.202;2023-08-06T08:58:16;97437.34;;;16.86
64175;BMP280;50469;50.438;-119.202;2023-08-06T09:00:47;97446.09;;;16.90
64175;BMP280;50469;50.438;-119.202;2023-08-06T09:03:16;97445.38;;;17.11
64175;BMP280;50469;50.438;-119.202;2023-08-06T09:05:45;97452.94;;;17.29
64175;BMP280;50469;50.438;-119.202;2023-08-06T09:08:18;97451.50;;;17.25
64175;BMP280;50469;50.438;-119.202;2023-08-06T09:10:48;97460.38;;;17.25
64175;BMP280;50469;50.438;-119.202;2023-08-06T09:13:16;97454.41;;;17.08
64175;BMP280;50469;50.438;-119.202;2023-08-06T09:15:45;97452.88;;;17.07
64175;BMP280;50469;50.438;-119.202;2023-08-06T09:18:13;97459.47;;;17.06
64175;BMP280;50469;50.438;-119.202;2023-08-06T09:20:41;97459.66;;;16.13
64175;BMP280;50469;50.438;-119.202;2023-08-06T09:23:10;97459.13;;;16.70
64175;BMP280;50469;50.438;-119.202;2023-08-06T09:25:39;97459.56;;;16.42
64175;BMP280;50469;50.438;-119.202;2023-08-06T09:28:07;97457.19;;;16.32
64175;BMP280;50469;50.438;-119.202;2023-08-06T09:30:38;97467.22;;;16.57
64175;BMP280;50469;50.438;-119.202;2023-08-06T09:33:09;97459.59;;;16.30
64175;BMP280;50469;50.438;-119.202;2023-08-06T09:35:37;97463.47;;;16.67
64175;BMP280;50469;50.438;-119.202;2023-08-06T09:38:09;97465.28;;;16.70
64175;BMP280;50469;50.438;-119.202;2023-08-06T09:40:41;97463.03;;;16.56
64175;BMP280;50469;50.438;-119.202;2023-08-06T09:43:11;97464.22;;;16.42
64175;BMP280;50469;50.438;-119.202;2023-08-06T09:45:42;97457.25;;;15.61
64175;BMP280;50469;50.438;-119.202;2023-08-06T09:48:11;97466.13;;;16.16
64175;BMP280;50469;50.438;-119.202;2023-08-06T09:50:39;97463.41;;;15.61
64175;BMP280;50469;50.438;-119.202;2023-08-06T09:53:10;97470.56;;;15.97
64175;BMP280;50469;50.438;-119.202;2023-08-06T09:55:39;97471.88;;;15.63
64175;BMP280;50469;50.438;-119.202;2023-08-06T09:58:08;97468.06;;;15.61
64175;BMP280;50469;50.438;-119.202;2023-08-06T10:00:36;97472.03;;;15.27
64175;BMP280;50469;50.438;-119.202;2023-08-06T10:03:06;97471.66;;;15.58
64175;BMP280;50469;50.438;-119.202;2023-08-06T10:05:36;97476.22;;;15.28
64175;BMP280;50469;50.438;-119.202;2023-08-06T10:08:06;97477.59;;;15.03
64175;BMP280;50469;50.438;-119.202;2023-08-06T10:10:36;97480.63;;;15.38
64175;BMP280;50469;50.438;-119.202;2023-08-06T10:13:06;97468.25;;;15.08
64175;BMP280;50469;50.438;-119.202;2023-08-06T10:15:36;97474.97;;;14.67
64175;BMP280;50469;50.438;-119.202;2023-08-06T10:18:06;97475.59;;;14.91
64175;BMP280;50469;50.438;-119.202;2023-08-06T10:20:34;97468.69;;;14.74
64175;BMP280;50469;50.438;-119.202;2023-08-06T10:23:09;97470.34;;;15.62
64175;BMP280;50469;50.438;-119.202;2023-08-06T10:25:41;97466.59;;;15.43
64175;BMP280;50469;50.438;-119.202;2023-08-06T10:28:11;97472.97;;;15.49
64175;BMP280;50469;50.438;-119.202;2023-08-06T10:30:46;97464.78;;;15.69
64175;BMP280;50469;50.438;-119.202;2023-08-06T10:33:15;97464.88;;;15.49
64175;BMP280;50469;50.438;-119.202;2023-08-06T10:35:45;97475.56;;;15.53
64175;BMP280;50469;50.438;-119.202;2023-08-06T10:38:20;97467.47;;;15.69
64175;BMP280;50469;50.438;-119.202;2023-08-06T10:43:38;97471.72;;;15.54
64175;BMP280;50469;50.438;-119.202;2023-08-06T10:46:30;97464.75;;;15.40
64175;BMP280;50469;50.438;-119.202;2023-08-06T10:48:58;97478.25;;;15.40
64175;BMP280;50469;50.438;-119.202;2023-08-06T10:51:27;97481.13;;;14.84
64175;BMP280;50469;50.438;-119.202;2023-08-06T10:53:59;97485.03;;;14.83
64175;BMP280;50469;50.438;-119.202;2023-08-06T10:56:27;97488.66;;;14.76
64175;BMP280;50469;50.438;-119.202;2023-08-06T10:58:58;97489.66;;;14.82
64175;BMP280;50469;50.438;-119.202;2023-08-06T11:01:29;97489.91;;;15.04
64175;BMP280;50469;50.438;-119.202;2023-08-06T11:04:02;97495.16;;;14.43
64175;BMP280;50469;50.438;-119.202;2023-08-06T11:06:30;97489.53;;;14.53
64175;BMP280;50469;50.438;-119.202;2023-08-06T11:08:58;97491.47;;;14.89
64175;BMP280;50469;50.438;-119.202;2023-08-06T11:11:26;97485.53;;;14.78
64175;BMP280;50469;50.438;-119.202;2023-08-06T11:13:54;97486.00;;;14.20
64175;BMP280;50469;50.438;-119.202;2023-08-06T11:16:23;97488.09;;;14.49
64175;BMP280;50469;50.438;-119.202;2023-08-06T11:18:52;97487.28;;;14.84
64175;BMP280;50469;50.438;-119.202;2023-08-06T11:21:21;97486.47;;;14.35
64175;BMP280;50469;50.438;-119.202;2023-08-06T11:23:50;97488.94;;;14.26
64175;BMP280;50469;50.438;-119.202;2023-08-06T11:26:22;97494.19;;;13.73
64175;BMP280;50469;50.438;-119.202;2023-08-06T11:28:51;97499.94;;;13.95
64175;BMP280;50469;50.438;-119.202;2023-08-06T11:31:23;97495.69;;;13.98
64175;BMP280;50469;50.438;-119.202;2023-08-06T11:33:55;97503.53;;;13.88
64175;BMP280;50469;50.438;-119.202;2023-08-06T11:39:00;97502.03;;;14.07
64175;BMP280;50469;50.438;-119.202;2023-08-06T11:41:31;97510.38;;;14.13
64175;BMP280;50469;50.438;-119.202;2023-08-06T11:43:59;97516.44;;;13.97
64175;BMP280;50469;50.438;-119.202;2023-08-06T11:46:28;97504.56;;;13.75
64175;BMP280;50469;50.438;-119.202;2023-08-06T11:48:57;97510.75;;;14.15
64175;BMP280;50469;50.438;-119.202;2023-08-06T11:51:26;97504.38;;;14.05
64175;BMP280;50469;50.438;-119.202;2023-08-06T11:53:58;97506.22;;;14.28
64175;BMP280;50469;50.438;-119.202;2023-08-06T11:56:27;97504.16;;;13.76
64175;BMP280;50469;50.438;-119.202;2023-08-06T11:58:55;97508.66;;;14.03
64175;BMP280;50469;50.438;-119.202;2023-08-06T12:01:25;97506.50;;;14.14
64175;BMP280;50469;50.438;-119.202;2023-08-06T12:03:59;97506.41;;;14.37
64175;BMP280;50469;50.438;-119.202;2023-08-06T12:06:27;97504.31;;;14.29
64175;BMP280;50469;50.438;-119.202;2023-08-06T12:08:56;97509.28;;;13.90
64175;BMP280;50469;50.438;-119.202;2023-08-06T12:11:24;97506.63;;;13.87
64175;BMP280;50469;50.438;-119.202;2023-08-06T12:13:52;97512.28;;;13.92
64175;BMP280;50469;50.438;-119.202;2023-08-06T12:16:21;97501.66;;;13.18
64175;BMP280;50469;50.438;-119.202;2023-08-06T12:18:49;97490.25;;;13.34
64175;BMP280;50469;50.438;-119.202;2023-08-06T12:21:17;97514.22;;;13.92
64175;BMP280;50469;50.438;-119.202;2023-08-06T12:23:45;97503.28;;;13.36
64175;BMP280;50469;50.438;-119.202;2023-08-06T12:26:14;97511.31;;;13.83
64175;BMP280;50469;50.438;-119.202;2023-08-06T12:28:42;97515.13;;;14.05
64175;BMP280;50469;50.438;-119.202;2023-08-06T12:31:10;97511.38;;;13.79
64175;BMP280;50469;50.438;-119.202;2023-08-06T12:33:39;97516.78;;;13.56
64175;BMP280;50469;50.438;-119.202;2023-08-06T12:36:07;97512.88;;;13.84
64175;BMP280;50469;50.438;-119.202;2023-08-06T12:38:36;97521.75;;;14.01
64175;BMP280;50469;50.438;-119.202;2023-08-06T12:41:05;97526.03;;;13.98
64175;BMP280;50469;50.438;-119.202;2023-08-06T12:43:33;97525.13;;;14.05
64175;BMP280;50469;50.438;-119.202;2023-08-06T12:46:01;97527.63;;;13.96
64175;BMP280;50469;50.438;-119.202;2023-08-06T12:48:29;97531.66;;;13.64
64175;BMP280;50469;50.438;-119.202;2023-08-06T12:50:57;97536.31;;;13.36
64175;BMP280;50469;50.438;-119.202;2023-08-06T12:53:27;97532.22;;;13.75
64175;BMP280;50469;50.438;-119.202;2023-08-06T12:55:55;97529.44;;;13.59
64175;BMP280;50469;50.438;-119.202;2023-08-06T12:58:23;97532.81;;;13.63
64175;BMP280;50469;50.438;-119.202;2023-08-06T13:00:52;97531.56;;;14.11
64175;BMP280;50469;50.438;-119.202;2023-08-06T13:03:20;97536.19;;;13.90
64175;BMP280;50469;50.438;-119.202;2023-08-06T13:05:48;97532.56;;;14.21
64175;BMP280;50469;50.438;-119.202;2023-08-06T13:08:20;97537.84;;;14.24
64175;BMP280;50469;50.438;-119.202;2023-08-06T13:10:49;97542.94;;;14.19
64175;BMP280;50469;50.438;-119.202;2023-08-06T13:13:17;97542.94;;;13.99
64175;BMP280;50469;50.438;-119.202;2023-08-06T13:15:45;97542.53;;;14.00
64175;BMP280;50469;50.438;-119.202;2023-08-06T13:18:13;97549.88;;;14.40
64175;BMP280;50469;50.438;-119.202;2023-08-06T13:20:42;97547.75;;;14.67
64175;BMP280;50469;50.438;-119.202;2023-08-06T13:23:10;97550.97;;;14.78
64175;BMP280;50469;50.438;-119.202;2023-08-06T13:25:40;97548.13;;;14.86
64175;BMP280;50469;50.438;-119.202;2023-08-06T13:28:08;97552.03;;;15.01
64175;BMP280;50469;50.438;-119.202;2023-08-06T13:30:37;97555.25;;;15.28
64175;BMP280;50469;50.438;-119.202;2023-08-06T13:33:05;97550.00;;;15.21
64175;BMP280;50469;50.438;-119.202;2023-08-06T13:35:34;97561.88;;;15.57
64175;BMP280;50469;50.438;-119.202;2023-08-06T13:38:02;97557.00;;;15.81
64175;BMP280;50469;50.438;-119.202;2023-08-06T13:40:36;97558.56;;;16.24
64175;BMP280;50469;50.438;-119.202;2023-08-06T13:43:04;97560.47;;;16.65
64175;BMP280;50469;50.438;-119.202;2023-08-06T13:45:32;97556.06;;;17.31
64175;BMP280;50469;50.438;-119.202;2023-08-06T13:48:00;97555.00;;;17.64
64175;BMP280;50469;50.438;-119.202;2023-08-06T13:50:31;97560.41;;;17.29
64175;BMP280;50469;50.438;-119.202;2023-08-06T13:52:59;97561.59;;;17.28
64175;BMP280;50469;50.438;-119.202;2023-08-06T13:55:27;97565.28;;;16.32